sim
Sign-in with your pilot id or email,
or register
Callsign
Passwort

Schedule Details

Flight Number: EWG7589 (3)
Departure: Palma de Mallorca Airport (LEPA) at 13:25
Arrival: Hamburg Airport (EDDH) at 16:15
Route: Eurowings Passenger Schedule. Enter filed route here before submitting Pirep.

Weather Information
Getting current METAR information for LEPA 241430Z 31019KT 280V340 9999 FEW035 16/06 Q1010 NOSIG
Getting current METAR information for EDDH 241450Z 23004KT 200V260 9999 -RA FEW011 BKN014 03/01 Q0997 TEMPO 4500 -RASN

Schedule Frequency

Route Map